< < Back
Terminal Aerodrome Forecast


Current Version              Previous Versions:   1  2  3  4  5  6  7  8  9  

Terminal Aerodrome Forecast

407
FTUS42 KCHS 291729
TAFCHS
TAF
KCHS 291729Z 2918/3018 07009KT P6SM VCSH SCT025 BKN050
     FM292330 06004KT P6SM SCT035
     FM301500 08008KT P6SM BKN040=

Latest METAR

100
SAUS80 KWBC 301500 CCA
MTRCHS
METAR KCHS 301456Z 06004KT 10SM FEW030 SCT060 BKN200 25/23 A3010 RMK AO2
LTG DSNT SE SLP192 CB DSNT SE T02500228 $


USA.gov is the U.S. government's official web portal to all federal, state and local government web resources and services.